createdAt,value
2023-08-07T00:00:10.803Z,95.90
2023-08-07T00:00:42.869Z,96.03
2023-08-07T00:01:15.303Z,95.99
2023-08-07T00:01:47.232Z,95.65
2023-08-07T00:02:19.133Z,95.74
2023-08-07T00:02:51.365Z,95.57
2023-08-07T00:03:23.335Z,95.66
2023-08-07T00:03:55.317Z,96.21
2023-08-07T00:04:27.253Z,95.96
2023-08-07T00:04:59.170Z,96.05
2023-08-07T00:05:31.432Z,96.09
2023-08-07T00:06:03.521Z,96.29
2023-08-07T00:06:35.556Z,96.47
2023-08-07T00:07:07.465Z,96.66
2023-08-07T00:07:39.347Z,97.16
2023-08-07T00:08:11.200Z,97.08
2023-08-07T00:08:43.103Z,97.23
2023-08-07T00:09:15.028Z,97.13
2023-08-07T00:09:46.995Z,97.73
2023-08-07T00:10:19.090Z,97.63
2023-08-07T00:10:51.284Z,97.38
2023-08-07T00:11:23.242Z,97.45
2023-08-07T00:11:55.354Z,97.45
2023-08-07T00:12:27.530Z,97.12
2023-08-07T00:12:59.409Z,97.19
2023-08-07T00:13:31.279Z,97.07
2023-08-07T00:14:03.351Z,96.53
2023-08-07T00:14:35.223Z,96.43
2023-08-07T00:15:07.904Z,96.57
2023-08-07T00:15:40.253Z,96.82
2023-08-07T00:16:12.568Z,96.46
2023-08-07T00:16:46.092Z,96.88
2023-08-07T00:17:18.322Z,96.95
2023-08-07T00:17:50.295Z,97.19
2023-08-07T00:18:22.333Z,97.24
2023-08-07T00:18:57.392Z,97.25
2023-08-07T00:19:30.302Z,97.47
2023-08-07T00:20:02.540Z,97.52
2023-08-07T00:20:34.633Z,97.61
2023-08-07T00:21:06.506Z,97.53
2023-08-07T00:21:39.091Z,97.43
2023-08-07T00:22:11.020Z,97.62
2023-08-07T00:22:43.031Z,97.22
2023-08-07T00:23:15.022Z,97.44
2023-08-07T00:23:46.896Z,97.81
2023-08-07T00:24:18.836Z,98.20
2023-08-07T00:24:50.796Z,98.38
2023-08-07T00:25:22.704Z,98.18
2023-08-07T00:25:54.617Z,97.61
2023-08-07T00:26:26.927Z,97.38
2023-08-07T00:26:59.000Z,97.52
2023-08-07T00:27:31.000Z,97.49
2023-08-07T00:28:02.855Z,97.71
2023-08-07T00:28:34.904Z,98.29
2023-08-07T00:29:06.897Z,98.19
2023-08-07T00:29:39.055Z,98.12
2023-08-07T00:30:11.677Z,97.89
2023-08-07T00:30:43.647Z,97.99
2023-08-07T00:31:15.726Z,97.99
2023-08-07T00:31:47.687Z,97.78
2023-08-07T00:32:19.644Z,97.61
2023-08-07T00:32:51.586Z,97.66
2023-08-07T00:33:24.065Z,97.59
2023-08-07T00:33:57.082Z,97.62
2023-08-07T00:34:28.952Z,97.79
2023-08-07T00:35:00.837Z,98.16
2023-08-07T00:35:32.702Z,97.73
2023-08-07T00:36:05.029Z,97.31
2023-08-07T00:36:36.963Z,97.34
2023-08-07T00:37:08.942Z,97.24
2023-08-07T00:37:40.819Z,97.41
2023-08-07T00:38:12.713Z,97.36
2023-08-07T00:38:44.585Z,97.85
2023-08-07T00:39:16.437Z,97.69
2023-08-07T00:39:48.418Z,97.62
2023-08-07T00:40:20.370Z,97.75
2023-08-07T00:40:52.321Z,97.83
2023-08-07T00:41:24.427Z,97.60
2023-08-07T00:41:56.337Z,97.58
2023-08-07T00:42:28.194Z,97.76
2023-08-07T00:43:00.100Z,97.73
2023-08-07T00:43:31.966Z,98.06
2023-08-07T00:44:04.091Z,98.11
2023-08-07T00:44:36.510Z,98.16
2023-08-07T00:45:09.092Z,98.00
2023-08-07T00:45:47.453Z,97.66
2023-08-07T00:46:20.329Z,98.02
2023-08-07T00:46:53.132Z,97.97
2023-08-07T00:47:26.156Z,97.77
2023-08-07T00:47:58.281Z,98.25
2023-08-07T00:48:30.757Z,97.92
2023-08-07T00:49:04.768Z,97.70
2023-08-07T00:49:37.696Z,97.76
2023-08-07T00:50:10.412Z,98.08
2023-08-07T00:50:47.656Z,98.19
2023-08-07T00:51:21.319Z,98.16
2023-08-07T00:51:54.203Z,98.05
2023-08-07T00:52:26.779Z,98.55
2023-08-07T00:53:01.934Z,98.71
2023-08-07T00:53:33.903Z,99.09
2023-08-07T00:54:07.057Z,98.97
2023-08-07T00:54:39.642Z,99.43
2023-08-07T00:55:11.856Z,99.04
2023-08-07T00:55:44.283Z,99.08
2023-08-07T00:56:16.783Z,99.59
2023-08-07T00:56:49.034Z,99.93
2023-08-07T00:57:24.143Z,99.55
2023-08-07T00:57:56.172Z,98.99
2023-08-07T00:58:28.047Z,98.60
2023-08-07T00:59:00.586Z,98.60
2023-08-07T00:59:32.542Z,98.10
2023-08-07T01:00:05.749Z,97.83
2023-08-07T01:00:38.311Z,97.83
2023-08-07T01:01:10.398Z,98.18
2023-08-07T01:01:42.692Z,98.01
2023-08-07T01:02:15.186Z,97.37
2023-08-07T01:02:50.207Z,97.01
2023-08-07T01:03:22.217Z,97.16
2023-08-07T01:03:54.347Z,96.89
2023-08-07T01:04:27.616Z,96.79
2023-08-07T01:04:59.708Z,96.46
2023-08-07T01:05:31.826Z,96.17
2023-08-07T01:06:03.884Z,96.01
2023-08-07T01:06:35.828Z,95.74
2023-08-07T01:07:08.044Z,96.34
2023-08-07T01:07:39.944Z,97.24
2023-08-07T01:08:12.491Z,96.62
2023-08-07T01:08:45.320Z,96.13
2023-08-07T01:09:18.014Z,95.56
2023-08-07T01:09:50.158Z,95.90
2023-08-07T01:10:34.538Z,95.96
2023-08-07T01:11:19.034Z,95.92
2023-08-07T01:12:10.430Z,95.38
2023-08-07T01:12:59.595Z,93.96
2023-08-07T01:13:46.766Z,94.42
2023-08-07T01:14:38.789Z,94.56
2023-08-07T01:15:17.409Z,94.27
2023-08-07T01:15:56.624Z,94.11
2023-08-07T01:16:49.627Z,94.11
2023-08-07T01:17:24.806Z,94.34
2023-08-07T01:17:57.821Z,94.54
2023-08-07T01:18:32.339Z,94.27
2023-08-07T01:19:10.050Z,94.26
2023-08-07T01:19:42.665Z,93.94
2023-08-07T01:20:15.412Z,93.99
2023-08-07T01:20:47.289Z,94.61
2023-08-07T01:21:20.665Z,94.56
2023-08-07T01:22:15.813Z,94.16
2023-08-07T01:22:47.715Z,94.74
2023-08-07T01:23:19.657Z,94.22
2023-08-07T01:23:51.598Z,94.38
2023-08-07T01:24:23.455Z,94.15
2023-08-07T01:24:55.310Z,94.44
2023-08-07T01:25:27.470Z,94.66
2023-08-07T01:25:59.481Z,94.66
2023-08-07T01:26:33.753Z,94.98
2023-08-07T01:27:30.349Z,95.03
2023-08-07T01:28:33.443Z,95.30
2023-08-07T01:29:25.084Z,95.25
2023-08-07T01:30:25.060Z,95.36
2023-08-07T01:31:05.379Z,95.67
2023-08-07T01:31:40.713Z,95.88
2023-08-07T01:32:19.110Z,95.48
2023-08-07T01:33:10.960Z,95.93
2023-08-07T01:34:09.754Z,95.63
2023-08-07T01:34:43.637Z,95.20
2023-08-07T01:35:17.716Z,94.64
2023-08-07T01:35:54.627Z,94.69
2023-08-07T01:36:29.872Z,94.89
2023-08-07T01:37:04.614Z,93.91
2023-08-07T01:37:40.808Z,94.42
2023-08-07T01:38:14.203Z,94.82
2023-08-07T01:38:47.561Z,94.93
2023-08-07T01:39:21.870Z,94.51
2023-08-07T01:39:56.327Z,94.78
2023-08-07T01:40:29.698Z,94.48
2023-08-07T01:41:03.083Z,94.97
2023-08-07T01:41:37.181Z,94.80
2023-08-07T01:42:09.558Z,94.03
2023-08-07T01:42:42.243Z,94.33
2023-08-07T01:43:14.248Z,94.11
2023-08-07T01:43:46.584Z,94.52
2023-08-07T01:44:18.564Z,94.24
2023-08-07T01:44:51.006Z,94.52
2023-08-07T01:45:27.468Z,94.48
2023-08-07T01:45:59.789Z,94.71
2023-08-07T01:46:31.850Z,94.54
2023-08-07T01:47:03.904Z,94.82
2023-08-07T01:47:36.423Z,94.93
2023-08-07T01:48:08.534Z,94.70
2023-08-07T01:48:40.493Z,95.16
2023-08-07T01:49:12.481Z,94.81
2023-08-07T01:49:44.558Z,94.74
2023-08-07T01:50:16.601Z,94.78
2023-08-07T01:50:48.695Z,95.09
2023-08-07T01:51:20.653Z,94.86
2023-08-07T01:51:52.559Z,95.11
2023-08-07T01:52:24.532Z,95.36
2023-08-07T01:52:56.422Z,95.48
2023-08-07T01:53:28.414Z,95.37
2023-08-07T01:54:00.281Z,95.65
2023-08-07T01:54:32.196Z,95.69
2023-08-07T01:55:04.361Z,95.42
2023-08-07T01:55:36.339Z,95.52
2023-08-07T01:56:08.328Z,96.11
2023-08-07T01:56:40.312Z,95.97
2023-08-07T01:57:12.216Z,95.98
2023-08-07T01:57:44.927Z,96.19
2023-08-07T01:58:16.812Z,96.49
2023-08-07T01:58:48.712Z,96.78
2023-08-07T01:59:20.614Z,96.79
2023-08-07T01:59:53.396Z,96.72
2023-08-07T02:00:25.393Z,96.95
2023-08-07T02:00:57.344Z,96.67
2023-08-07T02:01:29.284Z,96.76
2023-08-07T02:02:01.343Z,97.03
2023-08-07T02:02:33.311Z,97.36
2023-08-07T02:03:05.285Z,97.01
2023-08-07T02:03:37.514Z,97.02
2023-08-07T02:04:09.481Z,96.53
2023-08-07T02:04:41.369Z,96.68
2023-08-07T02:05:13.565Z,96.94
2023-08-07T02:05:47.466Z,96.57
2023-08-07T02:06:19.427Z,96.88
2023-08-07T02:06:51.430Z,96.71
2023-08-07T02:07:23.291Z,96.87
2023-08-07T02:07:57.786Z,96.90
2023-08-07T02:08:29.788Z,96.91
2023-08-07T02:09:01.666Z,96.88
2023-08-07T02:09:33.587Z,96.96
2023-08-07T02:10:06.896Z,96.82
2023-08-07T02:10:38.946Z,96.99
2023-08-07T02:11:10.842Z,96.83
2023-08-07T02:11:43.790Z,97.51
2023-08-07T02:12:16.839Z,97.70
2023-08-07T02:12:48.884Z,97.99
2023-08-07T02:13:20.799Z,97.82
2023-08-07T02:13:52.732Z,98.25
2023-08-07T02:14:24.681Z,98.34
2023-08-07T02:14:56.644Z,98.42
2023-08-07T02:15:28.655Z,98.40
2023-08-07T02:16:00.651Z,98.64
2023-08-07T02:16:32.725Z,98.67
2023-08-07T02:17:04.946Z,98.63
2023-08-07T02:17:42.559Z,98.53
2023-08-07T02:18:14.607Z,98.62
2023-08-07T02:18:46.519Z,98.62
2023-08-07T02:19:18.436Z,98.60
2023-08-07T02:19:50.432Z,98.45
2023-08-07T02:20:22.419Z,98.38
2023-08-07T02:20:54.389Z,98.39
2023-08-07T02:21:26.283Z,98.32
2023-08-07T02:21:58.223Z,98.42
2023-08-07T02:22:30.130Z,98.64
2023-08-07T02:23:02.083Z,98.96
2023-08-07T02:23:35.563Z,98.63
2023-08-07T02:24:07.479Z,98.92
2023-08-07T02:24:39.590Z,98.78
2023-08-07T02:25:11.479Z,98.54
2023-08-07T02:25:43.419Z,98.45
2023-08-07T02:26:15.332Z,98.45
2023-08-07T02:26:47.261Z,98.50
2023-08-07T02:27:19.178Z,98.50
2023-08-07T02:27:51.129Z,98.52
2023-08-07T02:28:23.055Z,98.56
2023-08-07T02:28:54.962Z,99.04
2023-08-07T02:29:26.905Z,99.26
2023-08-07T02:29:58.935Z,99.46
2023-08-07T02:30:32.407Z,99.51
2023-08-07T02:31:04.455Z,99.53
2023-08-07T02:31:36.352Z,99.56
2023-08-07T02:32:08.537Z,99.62
2023-08-07T02:32:42.718Z,99.92
2023-08-07T02:33:14.648Z,99.79
2023-08-07T02:33:46.542Z,100.00
2023-08-07T02:34:18.435Z,99.74
2023-08-07T02:34:50.302Z,100.00
2023-08-07T02:35:22.437Z,100.00
2023-08-07T02:35:54.366Z,100.00
2023-08-07T02:36:26.279Z,100.00
2023-08-07T02:36:58.288Z,100.00
2023-08-07T02:37:30.393Z,100.00
2023-08-07T02:38:02.317Z,100.00
2023-08-07T02:38:34.480Z,100.00
2023-08-07T02:39:06.422Z,100.00
2023-08-07T02:39:38.619Z,100.00
2023-08-07T02:40:12.179Z,100.00
2023-08-07T02:40:44.930Z,100.00
2023-08-07T02:41:16.831Z,100.00
2023-08-07T02:41:48.820Z,100.00
2023-08-07T02:42:21.210Z,100.00
2023-08-07T02:42:53.221Z,100.00
2023-08-07T02:43:25.185Z,100.00
2023-08-07T02:43:57.118Z,100.00
2023-08-07T02:44:29.036Z,100.00
2023-08-07T02:45:00.972Z,100.00
2023-08-07T02:45:32.943Z,100.00
2023-08-07T02:46:05.081Z,100.00
2023-08-07T02:46:37.375Z,100.00
2023-08-07T02:47:09.273Z,100.00
2023-08-07T02:47:41.384Z,100.00
2023-08-07T02:48:13.579Z,100.00
2023-08-07T02:48:45.632Z,100.00
2023-08-07T02:49:17.599Z,100.00
2023-08-07T02:49:49.513Z,100.00
2023-08-07T02:50:21.433Z,100.00
2023-08-07T02:50:54.371Z,100.00
2023-08-07T02:51:26.307Z,100.00
2023-08-07T02:51:58.229Z,100.00
2023-08-07T02:52:31.290Z,100.00
2023-08-07T02:53:03.789Z,100.00
2023-08-07T02:53:35.707Z,100.00
2023-08-07T02:54:07.718Z,100.00
2023-08-07T02:54:39.822Z,100.00
2023-08-07T02:55:11.824Z,100.00
2023-08-07T02:55:45.103Z,100.00
2023-08-07T02:56:17.053Z,100.00
2023-08-07T02:56:50.170Z,100.00
2023-08-07T02:57:22.122Z,100.00
2023-08-07T02:57:54.284Z,100.00
2023-08-07T02:58:26.177Z,100.00
2023-08-07T02:59:00.378Z,100.00
2023-08-07T02:59:32.306Z,100.00
2023-08-07T03:00:04.660Z,100.00
2023-08-07T03:00:36.925Z,100.00
2023-08-07T03:01:09.449Z,100.00
2023-08-07T03:01:41.436Z,100.00
2023-08-07T03:02:13.381Z,100.00
2023-08-07T03:02:45.320Z,100.00
2023-08-07T03:03:17.325Z,100.00
2023-08-07T03:03:49.259Z,100.00
2023-08-07T03:04:21.214Z,100.00
2023-08-07T03:04:53.112Z,100.00
2023-08-07T03:05:25.055Z,100.00
2023-08-07T03:05:56.978Z,100.00
2023-08-07T03:06:28.872Z,100.00
2023-08-07T03:07:01.611Z,100.00
2023-08-07T03:07:33.571Z,100.00
2023-08-07T03:08:05.587Z,100.00
2023-08-07T03:08:37.459Z,100.00
2023-08-07T03:09:09.409Z,100.00
2023-08-07T03:09:41.371Z,100.00
2023-08-07T03:10:13.286Z,100.00
2023-08-07T03:10:56.975Z,100.00
2023-08-07T03:11:28.885Z,100.00
2023-08-07T03:12:04.777Z,100.00
2023-08-07T03:12:38.691Z,100.00
2023-08-07T03:13:10.611Z,100.00
2023-08-07T03:13:43.376Z,100.00
2023-08-07T03:14:15.374Z,100.00
2023-08-07T03:14:47.344Z,100.00
2023-08-07T03:15:19.291Z,100.00
2023-08-07T03:15:51.705Z,100.00
2023-08-07T03:16:23.743Z,100.00
2023-08-07T03:16:55.975Z,100.00
2023-08-07T03:17:28.238Z,100.00
2023-08-07T03:18:00.276Z,100.00
2023-08-07T03:18:33.267Z,100.00
2023-08-07T03:19:05.211Z,100.00
2023-08-07T03:19:37.155Z,100.00
2023-08-07T03:20:10.586Z,100.00
2023-08-07T03:20:42.928Z,100.00
2023-08-07T03:21:14.862Z,100.00
2023-08-07T03:21:46.803Z,100.00
2023-08-07T03:22:18.742Z,100.00
2023-08-07T03:22:50.685Z,100.00
2023-08-07T03:23:24.153Z,100.00
2023-08-07T03:23:56.127Z,100.00
2023-08-07T03:24:28.030Z,100.00
2023-08-07T03:24:59.986Z,100.00
2023-08-07T03:25:31.979Z,100.00
2023-08-07T03:26:50.319Z,100.00
2023-08-07T03:27:22.553Z,100.00
2023-08-07T03:27:54.464Z,100.00
2023-08-07T03:28:26.322Z,100.00
2023-08-07T03:28:58.223Z,100.00
2023-08-07T03:29:30.165Z,100.00
2023-08-07T03:30:02.049Z,100.00
2023-08-07T03:30:33.983Z,100.00
2023-08-07T03:31:06.092Z,100.00
2023-08-07T03:31:38.051Z,100.00
2023-08-07T03:32:10.730Z,100.00
2023-08-07T03:32:43.039Z,100.00
2023-08-07T03:33:15.000Z,100.00
2023-08-07T03:33:46.854Z,100.00
2023-08-07T03:34:19.086Z,100.00
2023-08-07T03:34:50.968Z,100.00
2023-08-07T03:35:22.924Z,100.00
2023-08-07T03:35:55.003Z,100.00
2023-08-07T03:36:26.918Z,100.00
2023-08-07T03:37:00.663Z,100.00
2023-08-07T03:37:32.625Z,100.00
2023-08-07T03:38:04.611Z,100.00
2023-08-07T03:38:36.501Z,100.00
2023-08-07T03:39:09.013Z,100.00
2023-08-07T03:39:41.079Z,100.00
2023-08-07T03:40:13.046Z,100.00
2023-08-07T03:40:44.992Z,100.00
2023-08-07T03:41:17.038Z,100.00
2023-08-07T03:41:48.974Z,100.00
2023-08-07T03:42:20.965Z,100.00
2023-08-07T03:42:52.956Z,100.00
2023-08-07T03:43:25.049Z,100.00
2023-08-07T03:43:56.942Z,100.00
2023-08-07T03:44:28.938Z,100.00
2023-08-07T03:45:00.887Z,100.00
2023-08-07T03:45:32.820Z,100.00
2023-08-07T03:46:04.806Z,100.00
2023-08-07T03:46:36.736Z,100.00
2023-08-07T03:47:08.691Z,100.00
2023-08-07T03:47:40.733Z,100.00
2023-08-07T03:48:12.786Z,100.00
2023-08-07T03:48:44.715Z,100.00
2023-08-07T03:49:16.619Z,100.00
2023-08-07T03:49:48.865Z,100.00
2023-08-07T03:50:20.841Z,100.00
2023-08-07T03:50:52.720Z,100.00
2023-08-07T03:51:24.639Z,100.00
2023-08-07T03:51:57.540Z,100.00
2023-08-07T03:52:29.406Z,100.00
2023-08-07T03:53:01.607Z,100.00
2023-08-07T03:53:33.622Z,100.00
2023-08-07T03:54:05.497Z,100.00
2023-08-07T03:54:37.525Z,100.00
2023-08-07T03:55:09.588Z,100.00
2023-08-07T03:55:43.157Z,100.00
2023-08-07T03:56:15.165Z,100.00
2023-08-07T03:56:48.116Z,100.00
2023-08-07T03:57:19.984Z,100.00
2023-08-07T03:57:51.938Z,100.00
2023-08-07T03:58:23.858Z,100.00
2023-08-07T03:58:55.772Z,100.00
2023-08-07T03:59:30.297Z,100.00
2023-08-07T04:00:02.304Z,100.00
2023-08-07T04:00:34.280Z,100.00
2023-08-07T04:01:06.350Z,100.00
2023-08-07T04:01:38.252Z,100.00
2023-08-07T04:02:10.207Z,100.00
2023-08-07T04:02:42.344Z,100.00
2023-08-07T04:03:14.394Z,100.00
2023-08-07T04:03:49.381Z,100.00
2023-08-07T04:04:21.474Z,100.00
2023-08-07T04:04:53.389Z,100.00
2023-08-07T04:05:25.454Z,100.00
2023-08-07T04:05:57.552Z,100.00
2023-08-07T04:06:30.115Z,100.00
2023-08-07T04:07:02.058Z,100.00
2023-08-07T04:07:34.187Z,100.00
2023-08-07T04:08:06.084Z,100.00
2023-08-07T04:08:38.042Z,100.00
2023-08-07T04:09:11.384Z,100.00
2023-08-07T04:09:43.379Z,100.00
2023-08-07T04:10:15.418Z,100.00
2023-08-07T04:10:47.892Z,100.00
2023-08-07T04:11:19.819Z,100.00
2023-08-07T04:11:51.707Z,100.00
2023-08-07T04:12:23.972Z,100.00
2023-08-07T04:12:55.861Z,100.00
2023-08-07T04:13:29.256Z,100.00
2023-08-07T04:14:01.149Z,100.00
2023-08-07T04:14:33.020Z,100.00
2023-08-07T04:15:05.273Z,100.00
2023-08-07T04:15:37.225Z,100.00
2023-08-07T04:16:09.217Z,100.00
2023-08-07T04:16:41.860Z,100.00
2023-08-07T04:17:13.811Z,100.00
2023-08-07T04:17:45.776Z,100.00
2023-08-07T04:18:18.101Z,100.00
2023-08-07T04:18:49.987Z,100.00
2023-08-07T04:19:22.017Z,100.00
2023-08-07T04:19:53.890Z,100.00
2023-08-07T04:20:25.971Z,100.00
2023-08-07T04:20:58.807Z,100.00
2023-08-07T04:21:31.770Z,100.00
2023-08-07T04:22:03.926Z,100.00
2023-08-07T04:22:35.861Z,100.00
2023-08-07T04:23:07.800Z,100.00
2023-08-07T04:23:41.630Z,100.00
2023-08-07T04:24:15.322Z,100.00
2023-08-07T04:24:47.457Z,100.00
2023-08-07T04:25:19.382Z,100.00
2023-08-07T04:25:52.287Z,100.00
2023-08-07T04:26:24.242Z,100.00
2023-08-07T04:26:56.330Z,100.00
2023-08-07T04:27:28.593Z,100.00
2023-08-07T04:28:00.510Z,100.00
2023-08-07T04:28:32.578Z,100.00
2023-08-07T04:29:04.848Z,100.00
2023-08-07T04:29:36.756Z,100.00
2023-08-07T04:30:09.201Z,100.00
2023-08-07T04:30:42.759Z,100.00
2023-08-07T04:31:15.064Z,100.00
2023-08-07T04:31:47.028Z,100.00
2023-08-07T04:32:18.995Z,100.00
2023-08-07T04:32:50.946Z,100.00
2023-08-07T04:33:23.164Z,100.00
2023-08-07T04:33:55.172Z,100.00
2023-08-07T04:34:27.085Z,100.00
2023-08-07T04:35:00.187Z,100.00
2023-08-07T04:35:32.428Z,100.00
2023-08-07T04:36:04.732Z,100.00
2023-08-07T04:36:36.592Z,100.00
2023-08-07T04:37:08.681Z,100.00
2023-08-07T04:37:41.827Z,100.00
2023-08-07T04:38:18.638Z,100.00
2023-08-07T04:38:51.378Z,100.00
2023-08-07T04:39:23.804Z,99.94
2023-08-07T04:39:55.708Z,99.51
2023-08-07T04:40:27.663Z,99.77
2023-08-07T04:40:59.572Z,99.63
2023-08-07T04:41:31.436Z,99.58
2023-08-07T04:42:03.519Z,99.83
2023-08-07T04:42:35.437Z,99.56
2023-08-07T04:43:07.277Z,99.76
2023-08-07T04:43:39.188Z,99.72
2023-08-07T04:44:11.114Z,99.54
2023-08-07T04:44:43.039Z,99.64
2023-08-07T04:45:15.270Z,99.51
2023-08-07T04:45:47.194Z,99.70
2023-08-07T04:46:19.152Z,99.71
2023-08-07T04:46:51.497Z,99.85
2023-08-07T04:47:23.470Z,99.72
2023-08-07T04:47:55.462Z,99.73
2023-08-07T04:48:27.450Z,99.52
2023-08-07T04:49:00.159Z,99.44
2023-08-07T04:49:32.255Z,99.28
2023-08-07T04:50:04.903Z,99.15
2023-08-07T04:50:36.872Z,98.98
2023-08-07T04:51:08.812Z,98.58
2023-08-07T04:51:40.711Z,98.89
2023-08-07T04:52:24.441Z,98.78
2023-08-07T04:52:57.779Z,98.31
2023-08-07T04:53:29.913Z,98.30
2023-08-07T04:54:02.027Z,98.10
2023-08-07T04:54:33.899Z,98.36
2023-08-07T04:55:06.270Z,97.86
2023-08-07T04:55:38.291Z,98.11
2023-08-07T04:56:10.244Z,97.95
2023-08-07T04:56:43.490Z,98.09
2023-08-07T04:57:15.386Z,97.94
2023-08-07T04:57:48.253Z,98.27
2023-08-07T04:58:20.223Z,98.39
2023-08-07T04:58:52.186Z,98.54
2023-08-07T04:59:24.135Z,98.71
2023-08-07T04:59:56.044Z,98.64
2023-08-07T05:00:28.763Z,98.57
2023-08-07T05:01:01.423Z,98.50
2023-08-07T05:01:33.396Z,98.38
2023-08-07T05:02:05.825Z,98.43
2023-08-07T05:02:37.874Z,98.21
2023-08-07T05:03:10.121Z,98.04
2023-08-07T05:03:42.350Z,97.98
2023-08-07T05:04:14.299Z,97.89
2023-08-07T05:04:46.576Z,97.92
2023-08-07T05:05:22.510Z,98.28
2023-08-07T05:06:01.629Z,98.25
2023-08-07T05:06:33.753Z,97.61
2023-08-07T05:07:05.913Z,97.37
2023-08-07T05:07:37.932Z,97.65
2023-08-07T05:08:09.842Z,97.41
2023-08-07T05:08:42.101Z,97.73
2023-08-07T05:09:14.045Z,97.27
2023-08-07T05:09:46.010Z,96.27
2023-08-07T05:10:18.083Z,96.08
2023-08-07T05:10:50.002Z,95.45
2023-08-07T05:11:21.916Z,95.27
2023-08-07T05:11:54.068Z,95.36
2023-08-07T05:12:26.204Z,95.34
2023-08-07T05:12:58.212Z,95.35
2023-08-07T05:13:30.118Z,94.84
2023-08-07T05:14:03.357Z,94.17
2023-08-07T05:14:35.293Z,94.18
2023-08-07T05:15:07.815Z,94.09
2023-08-07T05:15:39.758Z,93.34
2023-08-07T05:16:11.681Z,93.43
2023-08-07T05:16:43.803Z,92.95
2023-08-07T05:17:15.799Z,93.06
2023-08-07T05:17:47.737Z,92.46
2023-08-07T05:18:20.426Z,92.38
2023-08-07T05:18:52.308Z,93.04
2023-08-07T05:19:24.269Z,92.78
2023-08-07T05:19:56.191Z,92.87
2023-08-07T05:20:28.238Z,92.90
2023-08-07T05:21:00.121Z,92.33
2023-08-07T05:21:32.063Z,92.34
2023-08-07T05:22:04.375Z,92.14
2023-08-07T05:22:36.293Z,93.23
2023-08-07T05:23:08.314Z,92.73
2023-08-07T05:23:40.282Z,92.47
2023-08-07T05:24:13.601Z,92.31
2023-08-07T05:24:46.657Z,92.66
2023-08-07T05:25:19.703Z,92.13
2023-08-07T05:25:51.767Z,92.09
2023-08-07T05:26:23.725Z,92.46
2023-08-07T05:26:55.620Z,92.25
2023-08-07T05:27:30.442Z,92.75
2023-08-07T05:28:02.422Z,92.92
2023-08-07T05:28:34.380Z,93.03
2023-08-07T05:29:08.187Z,92.75
2023-08-07T05:29:45.931Z,92.67
2023-08-07T05:30:17.865Z,92.60
2023-08-07T05:30:49.915Z,92.34
2023-08-07T05:31:21.909Z,91.96
2023-08-07T05:31:54.181Z,92.20
2023-08-07T05:32:26.402Z,92.09
2023-08-07T05:32:58.377Z,91.98
2023-08-07T05:33:30.322Z,91.37
2023-08-07T05:34:02.268Z,91.64
2023-08-07T05:34:34.177Z,91.87
2023-08-07T05:35:07.967Z,91.71
2023-08-07T05:35:40.573Z,91.39
2023-08-07T05:36:12.867Z,91.63
2023-08-07T05:36:44.779Z,91.77
2023-08-07T05:37:16.805Z,91.66
2023-08-07T05:37:48.776Z,91.96
2023-08-07T05:38:20.720Z,91.60
2023-08-07T05:38:52.813Z,91.50
2023-08-07T05:39:24.881Z,91.20
2023-08-07T05:39:56.754Z,91.43
2023-08-07T05:40:28.681Z,91.31
2023-08-07T05:41:00.588Z,91.63
2023-08-07T05:41:32.668Z,91.05
2023-08-07T05:42:05.012Z,91.48
2023-08-07T05:42:36.997Z,91.70
2023-08-07T05:43:09.881Z,91.64
2023-08-07T05:43:41.867Z,91.24
2023-08-07T05:44:13.759Z,90.87
2023-08-07T05:44:46.221Z,91.46
2023-08-07T05:45:18.103Z,90.99
2023-08-07T05:45:50.353Z,91.10
2023-08-07T05:46:22.360Z,91.33
2023-08-07T05:46:54.367Z,91.09
2023-08-07T05:47:26.515Z,90.71
2023-08-07T05:47:58.505Z,91.22
2023-08-07T05:48:30.464Z,91.18
2023-08-07T05:49:02.446Z,90.99
2023-08-07T05:49:34.807Z,90.72
2023-08-07T05:50:07.311Z,90.86
2023-08-07T05:50:39.194Z,90.68
2023-08-07T05:51:11.075Z,90.23
2023-08-07T05:51:43.024Z,90.01
2023-08-07T05:52:15.781Z,89.75
2023-08-07T05:52:47.728Z,90.64
2023-08-07T05:53:19.715Z,90.43
2023-08-07T05:53:51.658Z,89.22
2023-08-07T05:54:23.552Z,89.64
2023-08-07T05:54:55.423Z,89.94
2023-08-07T05:55:27.354Z,89.27
2023-08-07T05:55:59.287Z,89.43
2023-08-07T05:56:31.171Z,89.96
2023-08-07T05:57:03.170Z,89.86
2023-08-07T05:57:36.295Z,90.78
2023-08-07T05:58:08.209Z,90.70
2023-08-07T05:58:40.096Z,90.38
2023-08-07T05:59:12.078Z,90.19
2023-08-07T05:59:44.214Z,90.26
2023-08-07T06:00:18.955Z,90.48
2023-08-07T06:00:50.910Z,90.52
2023-08-07T06:01:23.469Z,90.03
2023-08-07T06:01:59.444Z,90.37
2023-08-07T06:02:32.333Z,89.68
2023-08-07T06:03:04.448Z,89.76
2023-08-07T06:03:36.413Z,89.65
2023-08-07T06:04:08.411Z,89.08
2023-08-07T06:04:42.084Z,87.97
2023-08-07T06:05:15.936Z,87.94
2023-08-07T06:05:48.117Z,87.47
2023-08-07T06:06:20.253Z,87.26
2023-08-07T06:06:52.222Z,87.57
2023-08-07T06:07:24.231Z,87.20
2023-08-07T06:07:56.076Z,87.56
2023-08-07T06:08:27.958Z,87.14
2023-08-07T06:09:01.179Z,86.62
2023-08-07T06:09:33.312Z,86.50
2023-08-07T06:10:06.216Z,87.42
2023-08-07T06:10:39.032Z,87.91
2023-08-07T06:11:10.895Z,88.21
2023-08-07T06:11:43.070Z,87.91
2023-08-07T06:12:14.974Z,88.17
2023-08-07T06:12:46.901Z,87.51
2023-08-07T06:13:30.398Z,88.10
2023-08-07T06:14:07.631Z,87.44
2023-08-07T06:14:39.801Z,87.52
2023-08-07T06:15:11.764Z,88.43
2023-08-07T06:15:43.695Z,88.92
2023-08-07T06:16:15.656Z,89.18
2023-08-07T06:16:47.675Z,88.63
2023-08-07T06:17:19.658Z,89.12
2023-08-07T06:17:53.212Z,89.08
2023-08-07T06:18:25.183Z,88.36
2023-08-07T06:18:57.094Z,88.59
2023-08-07T06:19:32.701Z,88.29
2023-08-07T06:20:06.260Z,87.79
2023-08-07T06:20:38.239Z,87.15
2023-08-07T06:21:11.903Z,86.91
2023-08-07T06:21:43.805Z,86.88
2023-08-07T06:22:15.727Z,86.57
2023-08-07T06:22:47.590Z,86.73
2023-08-07T06:23:20.532Z,85.96
2023-08-07T06:23:53.045Z,85.48
2023-08-07T06:24:26.406Z,84.53
2023-08-07T06:24:59.644Z,84.91
2023-08-07T06:25:31.575Z,85.26
2023-08-07T06:26:06.311Z,84.01
2023-08-07T06:26:38.239Z,83.48
2023-08-07T06:27:10.214Z,83.16
2023-08-07T06:27:42.081Z,83.05
2023-08-07T06:28:14.135Z,82.51
2023-08-07T06:28:46.252Z,82.20
2023-08-07T06:29:18.186Z,82.75
2023-08-07T06:29:50.088Z,81.30
2023-08-07T06:30:21.986Z,79.96
2023-08-07T06:30:53.924Z,80.81
2023-08-07T06:31:25.867Z,80.15
2023-08-07T06:31:58.001Z,79.41
2023-08-07T06:32:30.143Z,79.57
2023-08-07T06:33:02.126Z,79.30
2023-08-07T06:33:35.299Z,79.29
2023-08-07T06:34:07.188Z,78.10
2023-08-07T06:34:39.168Z,78.50
2023-08-07T06:35:11.255Z,78.16
2023-08-07T06:35:43.925Z,76.82
2023-08-07T06:36:15.835Z,78.17
2023-08-07T06:36:47.729Z,78.68
2023-08-07T06:37:20.230Z,76.86
2023-08-07T06:37:52.128Z,78.96
2023-08-07T06:38:24.036Z,78.78
2023-08-07T06:38:56.074Z,77.61
2023-08-07T06:39:28.477Z,77.99
2023-08-07T06:40:00.703Z,79.04
2023-08-07T06:40:32.707Z,78.25
2023-08-07T06:41:06.652Z,77.74
2023-08-07T06:41:39.194Z,78.11
2023-08-07T06:42:11.184Z,78.98
2023-08-07T06:42:43.143Z,79.64
2023-08-07T06:43:15.097Z,80.18
2023-08-07T06:43:47.151Z,80.76
2023-08-07T06:44:20.338Z,81.15
2023-08-07T06:44:52.359Z,81.66
2023-08-07T06:45:24.258Z,82.91
2023-08-07T06:45:57.892Z,83.20
2023-08-07T06:46:30.110Z,83.87
2023-08-07T06:47:02.249Z,83.15
2023-08-07T06:47:35.160Z,83.26
2023-08-07T06:48:07.218Z,82.64
2023-08-07T06:48:39.302Z,83.79
2023-08-07T06:49:11.934Z,83.26
2023-08-07T06:49:43.976Z,82.31
2023-08-07T06:50:16.421Z,83.01
2023-08-07T06:50:56.769Z,82.30
2023-08-07T06:51:28.703Z,82.27
2023-08-07T06:52:00.664Z,83.47
2023-08-07T06:52:32.583Z,84.32
2023-08-07T06:53:04.535Z,84.10
2023-08-07T06:53:36.405Z,85.06
2023-08-07T06:54:08.317Z,85.00
2023-08-07T06:54:40.211Z,84.40
2023-08-07T06:55:12.082Z,84.28
2023-08-07T06:55:44.165Z,84.64
2023-08-07T06:56:16.108Z,85.30
2023-08-07T06:56:48.121Z,84.97
2023-08-07T06:57:19.972Z,86.39
2023-08-07T06:57:51.861Z,85.74
2023-08-07T06:58:23.838Z,85.95
2023-08-07T06:58:55.756Z,84.45
2023-08-07T06:59:27.636Z,84.36